createdAt,value
2023-05-22T00:00:24.749Z,12.35
2023-05-22T00:05:26.471Z,12.28
2023-05-22T00:10:28.182Z,12.17
2023-05-22T00:15:29.918Z,12.11
2023-05-22T00:20:31.617Z,12.11
2023-05-22T00:25:33.265Z,12.12
2023-05-22T00:30:35.145Z,12.07
2023-05-22T00:35:36.801Z,12.01
2023-05-22T00:40:38.629Z,12.00
2023-05-22T00:45:40.523Z,12.02
2023-05-22T00:50:42.743Z,11.92
2023-05-22T00:55:44.877Z,11.83
2023-05-22T01:00:48.369Z,11.79
2023-05-22T01:05:51.790Z,11.81
2023-05-22T01:11:01.027Z,11.89
2023-05-22T01:16:19.001Z,11.90
2023-05-22T01:21:46.235Z,11.90
2023-05-22T01:27:28.472Z,11.90
2023-05-22T01:32:32.401Z,11.84
2023-05-22T01:37:36.204Z,11.67
2023-05-22T01:42:41.149Z,11.52
2023-05-22T01:47:43.506Z,11.40
2023-05-22T01:53:13.545Z,11.49
2023-05-22T01:58:20.610Z,11.61
2023-05-22T02:03:27.361Z,11.48
2023-05-22T02:08:31.144Z,11.41
2023-05-22T02:13:34.348Z,11.43
2023-05-22T02:18:36.070Z,11.44
2023-05-22T02:23:38.036Z,11.42
2023-05-22T02:28:42.880Z,11.42
2023-05-22T02:33:45.030Z,11.56
2023-05-22T02:38:46.763Z,11.53
2023-05-22T02:43:48.678Z,11.56
2023-05-22T02:48:50.446Z,11.56
2023-05-22T02:53:53.585Z,11.52
2023-05-22T02:58:56.635Z,11.43
2023-05-22T03:03:58.412Z,11.30
2023-05-22T03:09:00.439Z,11.23
2023-05-22T03:14:02.151Z,11.29
2023-05-22T03:19:11.066Z,11.24
2023-05-22T03:24:13.135Z,11.20
2023-05-22T03:29:15.148Z,11.44
2023-05-22T03:34:18.021Z,11.47
2023-05-22T03:39:22.468Z,11.46
2023-05-22T03:44:31.026Z,11.45
2023-05-22T03:49:32.870Z,11.53
2023-05-22T03:54:34.510Z,11.61
2023-05-22T03:59:38.232Z,11.69
2023-05-22T04:04:39.990Z,11.74
2023-05-22T04:09:41.697Z,11.82
2023-05-22T04:14:43.365Z,11.90
2023-05-22T04:19:45.021Z,12.14
2023-05-22T04:24:49.147Z,12.28
2023-05-22T04:29:51.226Z,12.42
2023-05-22T04:34:53.060Z,12.70
2023-05-22T04:39:58.283Z,13.02
2023-05-22T04:45:00.998Z,13.25
2023-05-22T04:50:02.679Z,13.42
2023-05-22T04:55:06.782Z,13.57
2023-05-22T05:00:09.285Z,13.74
2023-05-22T05:05:12.771Z,13.94
2023-05-22T05:10:14.792Z,14.28
2023-05-22T05:15:16.932Z,14.71
2023-05-22T05:20:18.990Z,15.24
2023-05-22T05:25:20.672Z,15.58
2023-05-22T05:30:22.398Z,15.90
2023-05-22T05:35:43.025Z,16.19
2023-05-22T05:40:47.990Z,16.38
2023-05-22T05:45:51.392Z,16.58
2023-05-22T05:50:53.179Z,16.79
2023-05-22T05:55:55.124Z,17.04
2023-05-22T06:00:58.274Z,17.50
2023-05-22T06:06:01.059Z,17.79
2023-05-22T06:11:28.808Z,18.00
2023-05-22T06:16:30.879Z,18.15
2023-05-22T06:21:33.030Z,18.36
2023-05-22T06:26:34.861Z,18.58
2023-05-22T06:31:38.508Z,18.76
2023-05-22T06:36:42.279Z,18.95
2023-05-22T06:41:45.282Z,19.14
2023-05-22T06:46:48.467Z,19.35
2023-05-22T06:51:57.189Z,19.56
2023-05-22T06:56:59.546Z,19.74
2023-05-22T07:02:03.166Z,19.96
2023-05-22T07:07:12.302Z,20.19
2023-05-22T07:12:14.639Z,20.14
2023-05-22T07:17:16.348Z,20.39
2023-05-22T07:22:19.974Z,20.65
2023-05-22T07:27:23.229Z,20.62
2023-05-22T07:32:25.079Z,20.94
2023-05-22T07:37:30.097Z,21.63
2023-05-22T07:42:32.297Z,21.94
2023-05-22T07:47:34.144Z,22.22
2023-05-22T07:52:36.054Z,22.71
2023-05-22T07:57:39.810Z,23.18
2023-05-22T08:02:51.204Z,22.62
2023-05-22T08:07:52.904Z,22.64
2023-05-22T08:12:54.544Z,23.06
2023-05-22T08:17:56.276Z,22.77
2023-05-22T08:22:58.008Z,22.82
2023-05-22T08:27:59.895Z,23.06
2023-05-22T08:33:01.602Z,23.36
2023-05-22T08:38:03.427Z,22.92
2023-05-22T08:43:06.208Z,23.10
2023-05-22T08:48:12.965Z,23.02
2023-05-22T08:53:16.406Z,23.08
2023-05-22T08:58:18.850Z,23.22
2023-05-22T09:03:21.664Z,23.71
2023-05-22T09:08:24.177Z,24.28
2023-05-22T09:13:28.081Z,24.71
2023-05-22T09:18:30.265Z,24.79
2023-05-22T09:23:32.330Z,25.45
2023-05-22T09:28:38.102Z,25.25
2023-05-22T09:33:39.766Z,25.25
2023-05-22T09:38:41.549Z,24.97
2023-05-22T09:43:50.804Z,24.95
2023-05-22T09:48:52.956Z,25.44
2023-05-22T09:54:03.482Z,25.43
2023-05-22T09:59:09.726Z,25.69
2023-05-22T10:04:16.464Z,25.77
2023-05-22T10:09:20.613Z,25.56
2023-05-22T10:14:23.692Z,25.36
2023-05-22T10:19:27.817Z,25.57
2023-05-22T10:24:29.955Z,25.17
2023-05-22T10:29:38.421Z,26.27
2023-05-22T10:34:54.107Z,25.71
2023-05-22T10:40:11.975Z,25.78
2023-05-22T10:45:13.792Z,25.42
2023-05-22T10:50:17.758Z,25.61
2023-05-22T10:55:22.762Z,25.97
2023-05-22T11:00:24.562Z,25.98
2023-05-22T11:05:30.594Z,27.14
2023-05-22T11:10:54.999Z,27.02
2023-05-22T11:15:57.803Z,27.08
2023-05-22T11:21:00.806Z,26.55
2023-05-22T11:26:22.610Z,25.48
2023-05-22T11:31:26.469Z,25.01
2023-05-22T11:36:29.097Z,25.46
2023-05-22T11:41:34.392Z,27.04
2023-05-22T11:46:36.161Z,27.80
2023-05-22T11:51:40.021Z,28.47
2023-05-22T11:56:41.748Z,29.48
2023-05-22T12:01:43.353Z,30.96
2023-05-22T12:06:45.106Z,30.29
2023-05-22T12:11:48.109Z,30.17
2023-05-22T12:16:52.981Z,30.23
2023-05-22T12:21:54.717Z,30.16
2023-05-22T12:26:56.605Z,29.23
2023-05-22T12:32:03.285Z,27.98
2023-05-22T12:37:05.016Z,28.10
2023-05-22T12:42:08.612Z,27.90
2023-05-22T12:47:10.255Z,28.15
2023-05-22T12:52:11.948Z,28.71
2023-05-22T12:57:13.870Z,29.03
2023-05-22T13:02:15.575Z,30.00
2023-05-22T13:07:17.163Z,30.14
2023-05-22T13:12:19.304Z,30.97
2023-05-22T13:17:21.271Z,32.72
2023-05-22T13:22:23.682Z,31.53
2023-05-22T13:27:25.330Z,32.97
2023-05-22T13:32:27.113Z,34.05
2023-05-22T13:37:28.813Z,34.44
2023-05-22T13:42:30.530Z,36.90
2023-05-22T13:47:32.177Z,33.61
2023-05-22T13:52:33.972Z,34.46
2023-05-22T13:57:36.987Z,35.08
2023-05-22T14:02:38.753Z,37.65
2023-05-22T14:07:40.595Z,35.52
2023-05-22T14:12:42.224Z,35.60
2023-05-22T14:17:43.869Z,37.13
2023-05-22T14:22:56.542Z,36.38
2023-05-22T14:27:59.259Z,32.96
2023-05-22T14:33:00.951Z,35.31
2023-05-22T14:38:02.645Z,35.90
2023-05-22T14:43:04.328Z,33.42
2023-05-22T14:48:06.741Z,33.25
2023-05-22T14:53:09.414Z,33.13
2023-05-22T14:58:11.109Z,30.50
2023-05-22T15:03:12.915Z,29.26
2023-05-22T15:08:14.639Z,30.11
2023-05-22T15:13:16.421Z,30.90
2023-05-22T15:18:19.761Z,30.09
2023-05-22T15:23:25.052Z,28.98
2023-05-22T15:28:26.806Z,30.12
2023-05-22T15:33:28.482Z,28.55
2023-05-22T15:38:30.286Z,30.02
2023-05-22T15:43:31.947Z,29.18
2023-05-22T15:48:33.560Z,28.80
2023-05-22T15:53:35.453Z,28.66
2023-05-22T15:58:37.071Z,26.71
2023-05-22T16:03:38.872Z,26.39
2023-05-22T16:08:41.852Z,25.53
2023-05-22T16:13:43.603Z,25.40
2023-05-22T16:18:45.307Z,25.11
2023-05-22T16:23:47.030Z,25.14
2023-05-22T16:28:48.644Z,24.91
2023-05-22T16:33:50.280Z,24.67
2023-05-22T16:38:51.883Z,24.67
2023-05-22T16:43:53.656Z,24.93
2023-05-22T16:48:55.481Z,24.79
2023-05-22T16:53:57.083Z,24.86
2023-05-22T16:58:58.761Z,24.79
2023-05-22T17:04:00.450Z,24.84
2023-05-22T17:09:02.206Z,24.52
2023-05-22T17:14:04.375Z,24.22
2023-05-22T17:19:06.454Z,23.97
2023-05-22T17:24:11.612Z,23.42
2023-05-22T17:29:15.032Z,23.10
2023-05-22T17:34:16.699Z,22.84
2023-05-22T17:39:18.320Z,22.55
2023-05-22T17:44:19.924Z,22.28
2023-05-22T17:49:21.534Z,22.07
2023-05-22T17:54:23.221Z,21.83
2023-05-22T17:59:24.823Z,21.64
2023-05-22T18:04:26.469Z,21.38
2023-05-22T18:09:28.200Z,21.20
2023-05-22T18:14:29.831Z,21.00
2023-05-22T18:19:31.507Z,20.77
2023-05-22T18:24:33.167Z,20.44
2023-05-22T18:29:34.854Z,20.41
2023-05-22T18:34:37.583Z,20.43
2023-05-22T18:39:39.198Z,20.29
2023-05-22T18:44:40.876Z,20.13
2023-05-22T18:49:42.557Z,19.95
2023-05-22T18:54:44.274Z,19.74
2023-05-22T18:59:46.233Z,19.59
2023-05-22T19:04:48.981Z,19.43
2023-05-22T19:09:50.846Z,19.21
2023-05-22T19:14:52.626Z,19.11
2023-05-22T19:19:54.451Z,19.02
2023-05-22T19:24:56.184Z,19.40
2023-05-22T19:29:57.849Z,19.71
2023-05-22T19:34:59.430Z,19.60
2023-05-22T19:40:01.194Z,19.45
2023-05-22T19:45:03.414Z,19.57
2023-05-22T19:50:05.948Z,19.57
2023-05-22T19:55:09.472Z,19.36
2023-05-22T20:00:12.247Z,19.05
2023-05-22T20:05:13.980Z,18.91
2023-05-22T20:10:16.120Z,18.88
2023-05-22T20:15:17.770Z,18.82
2023-05-22T20:20:20.332Z,18.91
2023-05-22T20:25:22.015Z,18.84
2023-05-22T20:30:23.735Z,18.48
2023-05-22T20:35:26.492Z,18.14
2023-05-22T20:40:29.718Z,17.65
2023-05-22T20:45:31.459Z,17.25
2023-05-22T20:50:36.147Z,17.08
2023-05-22T20:55:39.313Z,17.06
2023-05-22T21:00:42.036Z,16.91
2023-05-22T21:05:43.955Z,16.91
2023-05-22T21:10:45.738Z,17.10
2023-05-22T21:15:47.388Z,17.26
2023-05-22T21:20:49.058Z,17.26
2023-05-22T21:25:50.735Z,17.10
2023-05-22T21:30:52.409Z,17.07
2023-05-22T21:35:54.072Z,17.20
2023-05-22T21:40:55.776Z,17.12
2023-05-22T21:45:57.471Z,17.07
2023-05-22T21:50:59.415Z,16.59
2023-05-22T21:56:01.282Z,16.19
2023-05-22T22:01:03.073Z,15.76
2023-05-22T22:06:05.055Z,15.59
2023-05-22T22:11:06.970Z,15.33
2023-05-22T22:16:08.821Z,15.00
2023-05-22T22:21:10.572Z,14.94
2023-05-22T22:26:12.723Z,14.86
2023-05-22T22:31:14.398Z,14.82
2023-05-22T22:36:16.947Z,14.70
2023-05-22T22:41:18.632Z,14.64
2023-05-22T22:46:21.804Z,14.49
2023-05-22T22:51:24.648Z,14.38
2023-05-22T22:56:29.438Z,14.42
2023-05-22T23:01:31.422Z,14.31
2023-05-22T23:06:34.601Z,14.23
2023-05-22T23:11:39.592Z,14.35
2023-05-22T23:16:41.350Z,14.30
2023-05-22T23:21:43.095Z,14.26
2023-05-22T23:26:44.821Z,14.24
2023-05-22T23:31:47.512Z,14.11
2023-05-22T23:36:49.246Z,14.12
2023-05-22T23:41:54.079Z,14.06
2023-05-22T23:46:56.608Z,14.12
2023-05-22T23:51:58.234Z,14.01
2023-05-22T23:56:59.883Z,14.04
